Time;durP1;ratioP1;P1;durP2;ratioP2;P2;SDS_P1;SDS_P2;PMS_P1;PMS_P2;Temp;Humidity;BMP_temperature;BMP_pressure;BME280_temperature;BME280_humidity;BME280_pressure;Samples;Min_cycle;Max_cycle;Signal;HPM_P1;HPM_P2
2021/06/27 00:02:18;;;;;;;;;;;;;;;18.63;64.71;97056.44;1703629;82;20103;-75
2021/06/27 00:04:44;;;;;;;;;;;;;;;18.63;64.61;97050.58;1745600;82;20103;-74
2021/06/27 00:07:11;;;;;;;;;;;;;;;18.65;64.18;97054.42;1729694;82;20094;-75
2021/06/27 00:09:37;;;;;;;;;;;;;;;18.66;64.41;97048.91;1713875;84;20097;-75
2021/06/27 00:12:04;;;;;;;;;;;;;;;18.64;64.33;97047.42;1718642;82;20432;-75
2021/06/27 00:14:30;;;;;;;;;;;;;;;18.61;64.72;97045.91;1745615;82;20127;-74
2021/06/27 00:16:56;;;;;;;;;;;;;;;18.60;64.34;97049.61;1725461;82;20103;-74
2021/06/27 00:19:22;;;;;;;;;;;;;;;18.55;64.40;97049.30;1690269;82;20104;-76
2021/06/27 00:21:49;;;;;;;;;;;;;;;18.52;64.78;97045.63;1717163;82;20105;-75
2021/06/27 00:24:16;;;;;;;;;;;;;;;18.50;64.96;97046.33;1716029;84;20402;-76
2021/06/27 00:26:42;;;;;;;;;;;;;;;18.47;64.54;97040.00;1712748;83;20412;-76
2021/06/27 00:29:09;;;;;;;;;;;;;;;18.41;65.05;97039.70;1709292;83;20408;-79
2021/06/27 00:31:35;;;;;;;;;;;;;;;18.35;64.94;97037.71;1719712;82;20087;-77
2021/06/27 00:34:01;;;;;;;;;;;;;;;18.28;64.90;97035.93;1716147;84;20098;-76
2021/06/27 00:36:27;;;;;;;;;;;;;;;18.21;64.64;97039.27;1710654;82;20104;-74
2021/06/27 00:38:53;;;;;;;;;;;;;;;18.14;64.60;97039.64;1705666;84;20126;-72
2021/06/27 00:41:21;;;;;;;;;;;;;;;18.09;64.49;97044.67;1710616;83;20115;-76
2021/06/27 00:43:50;;;;;;;;;;;;;;;18.03;64.23;97036.86;1683071;83;20163;-74
2021/06/27 00:46:16;;;;;;;;;;;;;;;17.98;65.13;97039.19;1677282;85;20096;-75
2021/06/27 00:48:43;;;;;;;;;;;;;;;17.92;64.97;97034.52;1697818;83;20132;-75
2021/06/27 00:51:09;;;;;;;;;;;;;;;17.85;64.54;97029.03;1725670;83;20114;-75
2021/06/27 00:53:35;;;;;;;;;;;;;;;17.82;64.68;97029.88;1705280;83;20090;-76
2021/06/27 00:56:01;;;;;;;;;;;;;;;17.77;65.59;97029.88;1705536;83;20106;-76
2021/06/27 00:58:36;;;;;;;;;;;;;;;17.72;65.86;97023.42;1698770;83;20089;-76
2021/06/27 01:01:05;;;;;;;;;;;;;;;17.67;66.34;97027.93;1697222;83;20124;-78
2021/06/27 01:03:31;;;;;;;;;;;;;;;17.62;64.99;97019.59;1706815;83;20097;-76
2021/06/27 01:05:57;;;;;;;;;;;;;;;17.56;65.42;97021.61;1705712;83;20090;-77
2021/06/27 01:08:23;;;;;;;;;;;;;;;17.53;65.28;97020.61;1706913;83;20134;-78
2021/06/27 01:10:50;;;;;;;;;;;;;;;17.51;65.58;97020.79;1701272;83;20145;-78
2021/06/27 01:13:21;;;;;;;;;;;;;;;17.49;65.51;97025.45;1705502;83;20090;-77
2021/06/27 01:15:49;;;;;;;;;;;;;;;17.48;65.22;97024.62;1705567;84;20143;-77
2021/06/27 01:18:15;;;;;;;;;;;;;;;17.47;66.02;97026.11;1689328;83;20146;-76
2021/06/27 01:20:42;;;;;;;;;;;;;;;17.45;66.01;97023.63;1690282;83;20105;-78
2021/06/27 01:23:13;;;;;;;;;;;;;;;17.47;65.71;97016.78;1705371;83;20110;-77
2021/06/27 01:25:42;;;;;;;;;;;;;;;17.46;65.67;97018.63;1705511;84;20159;-77
2021/06/27 01:28:09;;;;;;;;;;;;;;;17.47;65.62;97018.97;1685268;83;20099;-77
2021/06/27 01:30:36;;;;;;;;;;;;;;;17.49;66.10;97020.94;1707121;83;20141;-77
2021/06/27 01:33:05;;;;;;;;;;;;;;;17.49;65.34;97017.45;1705608;84;20106;-75
2021/06/27 01:35:31;;;;;;;;;;;;;;;17.51;65.83;97019.94;1705437;83;20106;-75
2021/06/27 01:37:58;;;;;;;;;;;;;;;17.51;65.42;97018.61;1691467;83;20108;-76
2021/06/27 01:40:26;;;;;;;;;;;;;;;17.51;65.74;97022.13;1692124;83;20108;-77
2021/06/27 01:42:55;;;;;;;;;;;;;;;17.49;65.92;97020.94;1677530;84;20109;-77
2021/06/27 01:45:24;;;;;;;;;;;;;;;17.49;65.90;97018.79;1676397;84;20107;-76
2021/06/27 01:47:59;;;;;;;;;;;;;;;17.49;65.97;97010.80;1689168;84;20109;-76
2021/06/27 01:50:28;;;;;;;;;;;;;;;17.49;65.91;97014.28;1709200;83;20222;-74
2021/06/27 01:52:56;;;;;;;;;;;;;;;17.48;65.97;97010.45;1698828;83;20161;-76
2021/06/27 01:55:24;;;;;;;;;;;;;;;17.47;66.05;97017.63;1700230;83;20105;-76
2021/06/27 01:57:52;;;;;;;;;;;;;;;17.47;66.41;97020.78;1705459;83;20110;-76
2021/06/27 02:00:19;;;;;;;;;;;;;;;17.45;65.73;97014.78;1709556;83;20094;-76
2021/06/27 02:02:46;;;;;;;;;;;;;;;17.45;65.88;97019.63;1705429;84;20102;-75
2021/06/27 02:05:12;;;;;;;;;;;;;;;17.44;65.83;97027.28;1704946;83;20122;-74
2021/06/27 02:07:39;;;;;;;;;;;;;;;17.45;66.16;97032.95;1705433;83;20102;-75
2021/06/27 02:10:12;;;;;;;;;;;;;;;17.43;66.14;97026.95;1697826;83;20103;-75
2021/06/27 02:12:40;;;;;;;;;;;;;;;17.41;65.53;97023.62;1712592;83;20094;-76
2021/06/27 02:15:08;;;;;;;;;;;;;;;17.38;66.36;97025.31;1696886;83;20104;-76
2021/06/27 02:17:36;;;;;;;;;;;;;;;17.35;65.78;97024.30;1677304;85;20108;-76
2021/06/27 02:20:05;;;;;;;;;;;;;;;17.32;66.93;97025.47;1706621;83;20143;-76
2021/06/27 02:22:31;;;;;;;;;;;;;;;17.32;65.73;97029.47;1734571;83;20100;-77
2021/06/27 02:24:57;;;;;;;;;;;;;;;17.31;65.55;97025.62;1709691;83;20110;-76
2021/06/27 02:27:23;;;;;;;;;;;;;;;17.29;65.81;97019.66;1704688;83;20094;-76
2021/06/27 02:29:49;;;;;;;;;;;;;;;17.25;65.62;97018.31;1672413;83;20162;-75
2021/06/27 02:32:15;;;;;;;;;;;;;;;17.20;66.08;97021.47;1719762;83;20110;-76
2021/06/27 02:34:43;;;;;;;;;;;;;;;17.17;65.58;97021.80;1705123;83;20098;-76
2021/06/27 02:37:09;;;;;;;;;;;;;;;17.14;65.81;97020.31;1705087;84;20122;-76
2021/06/27 02:39:35;;;;;;;;;;;;;;;17.12;66.63;97024.96;1689076;83;20104;-76
2021/06/27 02:42:01;;;;;;;;;;;;;;;17.11;66.49;97019.33;1689222;83;20403;-77
2021/06/27 02:44:27;;;;;;;;;;;;;;;17.10;66.44;97022.98;1689252;84;20145;-77
2021/06/27 02:46:53;;;;;;;;;;;;;;;17.12;67.26;97025.47;1677547;85;20108;-77
2021/06/27 02:49:22;;;;;;;;;;;;;;;17.14;66.02;97025.63;1677343;84;20112;-77
2021/06/27 02:51:47;;;;;;;;;;;;;;;17.16;66.33;97031.63;1712278;83;20104;-75
2021/06/27 02:54:14;;;;;;;;;;;;;;;17.19;66.67;97025.64;1687748;84;20130;-76
2021/06/27 02:56:40;;;;;;;;;;;;;;;17.21;66.69;97027.65;1705178;84;20189;-76
2021/06/27 02:59:06;;;;;;;;;;;;;;;17.23;66.38;97021.15;1699003;83;20096;-75
2021/06/27 03:01:32;;;;;;;;;;;;;;;17.29;66.30;97023.65;1699806;83;20100;-76
2021/06/27 03:03:58;;;;;;;;;;;;;;;17.32;65.91;97021.96;1677625;84;20101;-76
2021/06/27 03:06:24;;;;;;;;;;;;;;;17.33;65.93;97024.96;1677242;85;20105;-76
2021/06/27 03:08:51;;;;;;;;;;;;;;;17.37;66.17;97024.97;1677383;84;20179;-76
2021/06/27 03:11:19;;;;;;;;;;;;;;;17.42;65.80;97021.29;1716099;83;20091;-76
2021/06/27 03:13:45;;;;;;;;;;;;;;;17.47;65.76;97024.78;1677317;84;20104;-76
2021/06/27 03:16:11;;;;;;;;;;;;;;;17.52;65.78;97023.79;1677214;85;20096;-75
2021/06/27 03:18:37;;;;;;;;;;;;;;;17.58;66.05;97015.11;1677381;84;20422;-75
2021/06/27 03:21:04;;;;;;;;;;;;;;;17.51;66.23;96999.47;1709389;83;20389;-76
2021/06/27 03:23:30;;;;;;;;;;;;;;;17.69;65.96;97017.09;1679771;83;20116;-76
2021/06/27 03:25:57;;;;;;;;;;;;;;;17.70;65.71;97017.42;1677234;85;20108;-76
2021/06/27 03:28:23;;;;;;;;;;;;;;;17.75;65.71;97017.73;1677171;86;20129;-76
2021/06/27 03:30:50;;;;;;;;;;;;;;;17.80;65.55;97020.73;1705002;83;20122;-76
2021/06/27 03:33:16;;;;;;;;;;;;;;;17.84;65.45;97015.37;1703246;83;20170;-76
2021/06/27 03:35:42;;;;;;;;;;;;;;;17.89;65.37;97014.86;1705098;84;20126;-76
2021/06/27 03:38:17;;;;;;;;;;;;;;;17.93;65.43;97015.67;1706849;83;20106;-76
2021/06/27 03:40:41;;;;;;;;;;;;;;;18.00;65.57;97020.37;1681925;83;20148;-75
2021/06/27 03:43:07;;;;;;;;;;;;;;;18.04;65.20;97018.52;1700804;84;20150;-76
2021/06/27 03:45:33;;;;;;;;;;;;;;;18.07;65.30;97018.16;1702120;84;20425;-76
2021/06/27 03:47:59;;;;;;;;;;;;;;;18.09;65.07;97024.16;1679829;85;20401;-76
2021/06/27 03:50:25;;;;;;;;;;;;;;;18.12;64.92;97018.97;1712590;83;20134;-76
2021/06/27 03:52:51;;;;;;;;;;;;;;;18.18;65.08;97020.12;1719769;83;20147;-76
2021/06/27 03:55:19;;;;;;;;;;;;;;;18.48;65.12;97017.65;1684629;82;20112;-76
2021/06/27 03:57:47;;;;;;;;;;;;;;;19.00;64.84;97018.84;1687499;84;20126;-76
2021/06/27 04:00:14;;;;;;;;;;;;;;;19.61;64.17;97014.80;1707783;83;20165;-75
2021/06/27 04:02:41;;;;;;;;;;;;;;;20.27;63.22;97018.59;1693027;84;20144;-76
2021/06/27 04:05:09;;;;;;;;;;;;;;;20.90;62.69;97026.96;1679844;84;20103;-76
2021/06/27 04:07:35;;;;;;;;;;;;;;;21.52;60.55;97023.78;1679952;84;20727;-76
2021/06/27 04:10:03;;;;;;;;;;;;;;;22.11;59.98;97024.38;1688114;83;20112;-76
2021/06/27 04:12:29;;;;;;;;;;;;;;;22.67;58.18;97025.25;1691422;84;20129;-76
2021/06/27 04:14:55;;;;;;;;;;;;;;;23.26;55.12;97030.45;1704171;84;20118;-75
2021/06/27 04:17:22;;;;;;;;;;;;;;;23.83;55.58;97030.86;1680107;84;20132;-78
2021/06/27 04:19:50;;;;;;;;;;;;;;;24.37;53.40;97031.23;1697669;83;20120;-77
2021/06/27 04:22:17;;;;;;;;;;;;;;;24.91;54.33;97033.19;1715998;82;20104;-76
2021/06/27 04:24:44;;;;;;;;;;;;;;;25.35;51.42;97037.36;1708151;84;20142;-77
2021/06/27 04:27:10;;;;;;;;;;;;;;;25.81;54.03;97032.62;1702103;84;20133;-73
2021/06/27 04:29:37;;;;;;;;;;;;;;;26.15;48.19;97031.26;1699491;83;20182;-76
2021/06/27 04:32:03;;;;;;;;;;;;;;;26.59;50.10;97026.27;1709569;82;20135;-74
2021/06/27 04:34:30;;;;;;;;;;;;;;;26.92;46.37;97025.03;1707826;84;20419;-76
2021/06/27 04:36:56;;;;;;;;;;;;;;;27.31;46.17;97023.30;1676078;84;20173;-76
2021/06/27 04:39:22;;;;;;;;;;;;;;;27.71;48.24;97027.55;1690702;83;20107;-76
2021/06/27 04:41:48;;;;;;;;;;;;;;;28.13;45.25;97032.57;1696712;83;20114;-74
2021/06/27 04:44:15;;;;;;;;;;;;;;;28.52;47.10;97029.59;1677241;85;20117;-76
2021/06/27 04:46:41;;;;;;;;;;;;;;;28.93;39.39;97032.29;1699885;83;20447;-77
2021/06/27 04:49:08;;;;;;;;;;;;;;;29.29;41.42;97034.83;1700104;83;20412;-75
2021/06/27 04:51:37;;;;;;;;;;;;;;;29.75;41.86;97032.03;1705140;83;20110;-74
2021/06/27 04:54:04;;;;;;;;;;;;;;;30.12;45.07;97034.23;1734740;82;20092;-77
2021/06/27 04:56:30;;;;;;;;;;;;;;;30.40;38.60;97028.88;1708278;83;20468;-78
2021/06/27 04:58:56;;;;;;;;;;;;;;;30.79;44.24;97032.91;1705104;83;20408;-75
2021/06/27 05:01:23;;;;;;;;;;;;;;;31.05;35.77;97032.61;1723130;83;20120;-76
2021/06/27 05:03:49;;;;;;;;;;;;;;;31.31;34.60;97027.46;1707789;83;20449;-76
2021/06/27 05:06:15;;;;;;;;;;;;;;;31.61;36.72;97028.77;1705367;83;20415;-76
2021/06/27 05:08:41;;;;;;;;;;;;;;;31.94;34.53;97033.66;1705438;83;20411;-74
2021/06/27 05:11:09;;;;;;;;;;;;;;;32.27;36.98;97034.97;1730535;83;20112;-79
2021/06/27 05:13:36;;;;;;;;;;;;;;;32.54;36.01;97037.00;1710741;83;20090;-75
2021/06/27 05:16:03;;;;;;;;;;;;;;;32.70;31.89;97035.67;1705630;83;20137;-75
2021/06/27 05:18:29;;;;;;;;;;;;;;;32.94;30.10;97040.14;1705467;83;20098;-76
2021/06/27 05:20:55;;;;;;;;;;;;;;;33.14;31.12;97048.09;1705894;83;20102;-76
2021/06/27 05:23:21;;;;;;;;;;;;;;;33.38;29.58;97041.59;1724805;83;20534;-76
2021/06/27 05:25:47;;;;;;;;;;;;;;;33.68;30.33;97045.95;1734461;83;20174;-76
2021/06/27 05:28:13;;;;;;;;;;;;;;;33.82;29.85;97052.52;1734758;83;20096;-77
2021/06/27 05:30:39;;;;;;;;;;;;;;;34.11;29.86;97049.19;1734677;83;20100;-76
2021/06/27 05:33:06;;;;;;;;;;;;;;;34.36;30.59;97045.56;1718318;83;20097;-76
2021/06/27 05:35:32;;;;;;;;;;;;;;;34.42;30.89;97057.34;1705633;83;20164;-75
2021/06/27 05:37:58;;;;;;;;;;;;;;;34.36;28.30;97055.70;1705480;84;20114;-74
2021/06/27 05:40:24;;;;;;;;;;;;;;;34.21;32.29;97060.09;1705606;83;20426;-77
2021/06/27 05:42:50;;;;;;;;;;;;;;;34.29;30.59;97055.17;1707414;83;20105;-75
2021/06/27 05:45:16;;;;;;;;;;;;;;;34.53;27.82;97052.10;1705690;83;20156;-76
2021/06/27 05:47:43;;;;;;;;;;;;;;;34.73;34.99;97058.58;1706002;83;20101;-76
2021/06/27 05:50:09;;;;;;;;;;;;;;;34.93;29.72;97055.50;1705531;83;20371;-77
2021/06/27 05:52:36;;;;;;;;;;;;;;;35.34;31.31;97067.01;1711958;83;20132;-76
2021/06/27 05:55:05;;;;;;;;;;;;;;;35.50;26.50;97060.06;1734640;83;20151;-77
2021/06/27 05:57:31;;;;;;;;;;;;;;;35.87;25.32;97063.32;1734750;82;20108;-75
2021/06/27 05:59:57;;;;;;;;;;;;;;;36.24;25.10;97059.94;1722716;83;20138;-76
2021/06/27 06:02:24;;;;;;;;;;;;;;;36.64;25.42;97065.83;1707469;83;20096;-76
2021/06/27 06:04:50;;;;;;;;;;;;;;;36.92;25.21;97064.67;1705442;83;20419;-75
2021/06/27 06:07:16;;;;;;;;;;;;;;;36.94;24.33;97065.20;1705551;83;20106;-76
2021/06/27 06:09:42;;;;;;;;;;;;;;;37.13;24.05;97072.05;1707554;83;20163;-74
2021/06/27 06:12:09;;;;;;;;;;;;;;;37.17;29.46;97068.95;1705739;83;20098;-76
2021/06/27 06:14:35;;;;;;;;;;;;;;;37.28;24.65;97066.32;1704339;83;20130;-75
2021/06/27 06:17:01;;;;;;;;;;;;;;;37.27;23.58;97071.55;1711865;83;20181;-74
2021/06/27 06:19:27;;;;;;;;;;;;;;;36.98;23.82;97065.68;1719039;83;20114;-75
2021/06/27 06:21:53;;;;;;;;;;;;;;;37.03;24.27;97050.48;1705135;84;20110;-75
2021/06/27 06:24:20;;;;;;;;;;;;;;;37.27;22.99;97069.38;1704489;84;20098;-72
2021/06/27 06:26:47;;;;;;;;;;;;;;;37.22;25.43;97073.02;1704295;83;20150;-76
2021/06/27 06:29:13;;;;;;;;;;;;;;;37.21;28.62;97072.75;1706906;83;20159;-76
2021/06/27 06:31:39;;;;;;;;;;;;;;;36.87;25.20;97073.19;1724536;83;20130;-74
2021/06/27 06:34:06;;;;;;;;;;;;;;;36.71;29.46;97072.57;1707488;83;20106;-78
2021/06/27 06:36:32;;;;;;;;;;;;;;;36.44;27.25;97081.42;1705372;83;20102;-76
2021/06/27 06:38:58;;;;;;;;;;;;;;;36.62;25.09;97081.20;1705292;84;20118;-76
2021/06/27 06:41:24;;;;;;;;;;;;;;;36.68;24.33;97084.16;1732836;83;20097;-76
2021/06/27 06:43:51;;;;;;;;;;;;;;;35.69;28.06;97086.77;1734521;82;20386;-76
2021/06/27 06:46:17;;;;;;;;;;;;;;;34.65;26.80;97087.34;1734467;83;20108;-75
2021/06/27 06:48:43;;;;;;;;;;;;;;;33.85;27.73;97092.94;1734696;83;20107;-73
2021/06/27 06:51:09;;;;;;;;;;;;;;;33.64;29.02;97083.94;1732617;83;20101;-75
2021/06/27 06:53:35;;;;;;;;;;;;;;;33.76;29.85;97091.84;1734575;82;20162;-75
2021/06/27 06:56:02;;;;;;;;;;;;;;;33.08;30.00;97091.50;1709654;83;20174;-75
2021/06/27 06:58:30;;;;;;;;;;;;;;;33.06;30.64;97093.67;1705454;84;20444;-76
2021/06/27 07:01:00;;;;;;;;;;;;;;;33.27;29.77;97089.87;1707354;83;20110;-76
2021/06/27 07:03:32;;;;;;;;;;;;;;;33.41;28.75;97094.29;1705283;83;20113;-76
2021/06/27 07:06:01;;;;;;;;;;;;;;;33.66;29.00;97091.84;1704623;83;20138;-76
2021/06/27 07:08:29;;;;;;;;;;;;;;;34.21;29.24;97091.55;1707208;83;20122;-74
2021/06/27 07:10:56;;;;;;;;;;;;;;;34.71;27.96;97088.14;1728233;83;20108;-75
2021/06/27 07:13:22;;;;;;;;;;;;;;;35.11;27.36;97084.97;1726349;83;20399;-76
2021/06/27 07:15:49;;;;;;;;;;;;;;;35.51;27.10;97084.16;1690171;83;20401;-76
2021/06/27 07:18:15;;;;;;;;;;;;;;;35.76;27.15;97078.48;1677246;84;20452;-76
2021/06/27 07:20:41;;;;;;;;;;;;;;;36.01;28.13;97078.00;1679298;84;20113;-74
2021/06/27 07:23:07;;;;;;;;;;;;;;;35.97;28.47;97079.67;1677421;84;20100;-77
2021/06/27 07:25:34;;;;;;;;;;;;;;;35.93;28.61;97083.55;1677326;85;20124;-76
2021/06/27 07:28:00;;;;;;;;;;;;;;;36.04;29.98;97088.94;1677166;85;20107;-76
2021/06/27 07:30:26;;;;;;;;;;;;;;;36.22;26.19;97092.89;1679013;84;20096;-76
2021/06/27 07:32:52;;;;;;;;;;;;;;;36.05;25.91;97090.05;1677139;85;20171;-75
2021/06/27 07:35:18;;;;;;;;;;;;;;;35.62;27.91;97095.31;1677295;84;20170;-77
2021/06/27 07:37:45;;;;;;;;;;;;;;;34.98;28.71;97090.52;1677091;85;20117;-77
2021/06/27 07:40:12;;;;;;;;;;;;;;;34.36;29.40;97095.35;1679239;85;20116;-77
2021/06/27 07:42:38;;;;;;;;;;;;;;;34.31;28.74;97090.72;1679590;85;20100;-76
2021/06/27 07:45:05;;;;;;;;;;;;;;;34.28;30.30;97090.45;1679841;85;20120;-74
2021/06/27 07:47:32;;;;;;;;;;;;;;;33.72;29.88;97092.14;1681680;84;20483;-73
2021/06/27 07:49:58;;;;;;;;;;;;;;;33.55;29.83;97095.13;1678912;85;20108;-76
2021/06/27 07:52:24;;;;;;;;;;;;;;;33.99;30.54;97095.96;1678215;85;20183;-76
2021/06/27 07:54:52;;;;;;;;;;;;;;;33.86;29.66;97091.88;1678125;85;20128;-76
2021/06/27 07:57:18;;;;;;;;;;;;;;;33.86;30.52;97092.44;1678270;85;20166;-76
2021/06/27 07:59:44;;;;;;;;;;;;;;;33.82;29.74;97081.73;1678593;85;20092;-74
2021/06/27 08:02:12;;;;;;;;;;;;;;;34.10;29.47;97099.52;1679508;85;20405;-76
2021/06/27 08:04:39;;;;;;;;;;;;;;;34.18;29.16;97098.12;1655328;85;20101;-76
2021/06/27 08:07:05;;;;;;;;;;;;;;;34.36;30.04;97104.93;1679663;85;20409;-76
2021/06/27 08:09:32;;;;;;;;;;;;;;;34.46;29.50;97102.73;1679395;85;20120;-75
2021/06/27 08:11:58;;;;;;;;;;;;;;;34.58;30.95;97107.35;1679536;85;20116;-75
2021/06/27 08:14:24;;;;;;;;;;;;;;;34.59;28.66;97105.42;1679616;85;20413;-75
2021/06/27 08:16:50;;;;;;;;;;;;;;;34.54;29.42;97101.62;1679436;85;20104;-77
2021/06/27 08:19:16;;;;;;;;;;;;;;;34.30;28.94;97095.08;1679388;84;20096;-75
2021/06/27 08:21:42;;;;;;;;;;;;;;;33.86;29.65;97104.73;1679581;85;20104;-76
2021/06/27 08:24:08;;;;;;;;;;;;;;;33.84;30.06;97102.78;1679342;85;20085;-75
2021/06/27 08:26:35;;;;;;;;;;;;;;;33.81;31.13;97104.69;1679490;85;20413;-75
2021/06/27 08:29:01;;;;;;;;;;;;;;;33.57;30.13;97102.52;1680860;84;20136;-74
2021/06/27 08:31:28;;;;;;;;;;;;;;;33.46;30.69;97109.86;1701344;84;20114;-75
2021/06/27 08:33:55;;;;;;;;;;;;;;;33.45;29.92;97108.25;1684917;84;20097;-73
2021/06/27 08:36:21;;;;;;;;;;;;;;;33.39;30.66;97106.05;1689010;84;20120;-72
2021/06/27 08:38:49;;;;;;;;;;;;;;;33.51;30.51;97104.42;1686187;83;20118;-76
2021/06/27 08:41:17;;;;;;;;;;;;;;;33.52;30.36;97109.33;1705552;83;20098;-75
2021/06/27 08:43:43;;;;;;;;;;;;;;;33.47;30.16;97107.41;1703450;83;20099;-74
2021/06/27 08:46:12;;;;;;;;;;;;;;;33.03;30.75;97103.22;1701278;83;20384;-75
2021/06/27 08:48:39;;;;;;;;;;;;;;;32.95;31.22;97101.83;1699730;84;20435;-74
2021/06/27 08:51:07;;;;;;;;;;;;;;;32.77;31.25;97064.88;1699445;84;20110;-74
2021/06/27 08:53:34;;;;;;;;;;;;;;;32.98;30.88;97095.84;1711534;83;20414;-76
2021/06/27 08:56:08;;;;;;;;;;;;;;;32.84;30.95;97090.59;1698546;83;20109;-75
2021/06/27 08:58:37;;;;;;;;;;;;;;;32.86;31.55;97096.05;1701520;83;20438;-75
2021/06/27 09:01:05;;;;;;;;;;;;;;;32.88;30.86;97102.63;1704166;83;20191;-76
2021/06/27 09:03:31;;;;;;;;;;;;;;;33.04;30.31;97102.66;1703226;83;20108;-75
2021/06/27 09:05:58;;;;;;;;;;;;;;;33.12;29.94;97100.77;1705470;83;20376;-76
2021/06/27 09:08:25;;;;;;;;;;;;;;;33.09;31.30;97106.76;1727928;83;20092;-74
2021/06/27 09:10:53;;;;;;;;;;;;;;;32.87;30.17;97094.16;1730791;82;20157;-77
2021/06/27 09:13:29;;;;;;;;;;;;;;;32.67;30.31;97107.97;1702292;84;20126;-74
2021/06/27 09:15:58;;;;;;;;;;;;;;;32.63;30.90;97101.95;1702830;84;20157;-75
2021/06/27 09:18:26;;;;;;;;;;;;;;;32.62;31.05;97098.38;1703576;83;20109;-74
2021/06/27 09:20:55;;;;;;;;;;;;;;;32.79;31.15;97104.23;1705485;83;20419;-76
2021/06/27 09:23:39;;;;;;;;;;;;;;;32.45;31.38;97097.23;1704903;84;20169;-75
2021/06/27 09:26:06;;;;;;;;;;;;;;;31.99;31.31;97096.92;1705524;83;20154;-76
2021/06/27 09:28:47;;;;;;;;;;;;;;;31.51;31.63;97094.07;1698623;83;20101;-76
2021/06/27 09:31:37;;;;;;;;;;;;;;;31.62;31.73;97105.31;1677144;85;20409;-74
2021/06/27 09:34:06;;;;;;;;;;;;;;;31.72;31.61;97105.44;1676997;85;20127;-77
2021/06/27 09:36:37;;;;;;;;;;;;;;;31.70;31.86;97102.14;1677174;84;20430;-76
2021/06/27 09:39:09;;;;;;;;;;;;;;;31.46;31.65;97098.38;1706906;83;20110;-76
2021/06/27 09:41:36;;;;;;;;;;;;;;;31.34;32.20;97103.70;1715845;83;20093;-75
2021/06/27 09:44:11;;;;;;;;;;;;;;;31.27;32.24;97110.71;1715914;83;20085;-76
2021/06/27 09:46:47;;;;;;;;;;;;;;;31.20;31.57;97106.02;1723424;82;20145;-77
2021/06/27 09:49:15;;;;;;;;;;;;;;;30.95;31.06;97107.36;1704009;83;20097;-77
2021/06/27 09:51:52;;;;;;;;;;;;;;;29.95;32.20;97101.36;1715804;83;20097;-77
2021/06/27 09:54:25;;;;;;;;;;;;;;;29.69;33.37;97105.00;1710781;82;20129;-75
2021/06/27 09:56:51;;;;;;;;;;;;;;;29.71;33.88;97098.25;1730269;82;20101;-76
2021/06/27 09:59:20;;;;;;;;;;;;;;;29.83;34.03;97091.92;1713932;83;20415;-77
2021/06/27 10:01:47;;;;;;;;;;;;;;;29.94;32.11;97093.77;1702852;84;20128;-76
2021/06/27 10:04:15;;;;;;;;;;;;;;;29.94;32.53;97097.83;1734239;82;20107;-76
2021/06/27 10:06:50;;;;;;;;;;;;;;;29.93;32.34;97098.91;1725535;82;20449;-77
2021/06/27 10:09:23;;;;;;;;;;;;;;;30.00;32.92;97100.09;1747531;82;20119;-75
2021/06/27 10:11:58;;;;;;;;;;;;;;;29.98;32.70;97098.16;1746891;82;20253;-74
2021/06/27 10:14:35;;;;;;;;;;;;;;;29.84;32.07;97101.72;1716206;82;20117;-76
2021/06/27 10:17:04;;;;;;;;;;;;;;;29.79;32.67;97094.31;1703891;84;20402;-76
2021/06/27 10:19:30;;;;;;;;;;;;;;;29.52;33.01;97088.17;1706572;83;20118;-77
2021/06/27 10:21:59;;;;;;;;;;;;;;;29.37;33.52;97090.64;1706880;84;20130;-77
2021/06/27 10:24:26;;;;;;;;;;;;;;;29.39;33.65;97089.31;1707356;83;20102;-77
2021/06/27 10:26:52;;;;;;;;;;;;;;;29.48;33.72;97079.41;1707531;84;20098;-78
2021/06/27 10:29:20;;;;;;;;;;;;;;;29.62;33.78;97083.98;1707377;84;20110;-76
2021/06/27 10:31:49;;;;;;;;;;;;;;;29.70;33.41;97083.57;1707496;83;20134;-76
2021/06/27 10:34:16;;;;;;;;;;;;;;;29.66;32.54;97075.61;1707464;83;20121;-76
2021/06/27 10:36:44;;;;;;;;;;;;;;;29.46;33.10;97079.66;1707284;84;20102;-75
2021/06/27 10:39:14;;;;;;;;;;;;;;;29.30;33.44;97075.28;1707130;84;20130;-78
2021/06/27 10:41:54;;;;;;;;;;;;;;;29.23;33.47;97070.55;1706576;83;20146;-77
2021/06/27 10:44:24;;;;;;;;;;;;;;;29.20;32.77;97074.28;1713576;82;20176;-77
2021/06/27 10:46:53;;;;;;;;;;;;;;;29.25;32.76;97067.06;1714586;84;20105;-76
2021/06/27 10:49:35;;;;;;;;;;;;;;;29.32;32.90;97074.22;1714574;84;20149;-76
2021/06/27 10:52:06;;;;;;;;;;;;;;;29.29;33.46;97066.84;1715023;83;20106;-76
2021/06/27 10:54:35;;;;;;;;;;;;;;;29.21;33.64;97071.31;1715027;83;20138;-76
2021/06/27 10:57:10;;;;;;;;;;;;;;;29.20;33.95;97064.23;1704735;82;20105;-76
2021/06/27 10:59:42;;;;;;;;;;;;;;;29.30;33.63;97068.49;1692778;83;20099;-76
2021/06/27 11:02:23;;;;;;;;;;;;;;;29.50;33.26;97071.84;1700187;84;20170;-77
2021/06/27 11:04:54;;;;;;;;;;;;;;;29.65;33.48;97063.95;1711816;84;20414;-76
2021/06/27 11:07:36;;;;;;;;;;;;;;;29.76;33.63;97066.28;1705923;84;20160;-76
2021/06/27 11:10:24;;;;;;;;;;;;;;;29.72;33.79;97065.14;1717160;82;20142;-76
2021/06/27 11:13:00;;;;;;;;;;;;;;;29.68;33.08;97062.62;1715452;82;20146;-77
2021/06/27 11:15:29;;;;;;;;;;;;;;;29.71;33.11;97058.06;1706194;84;20150;-77
2021/06/27 11:17:57;;;;;;;;;;;;;;;29.72;32.71;97056.45;1706131;83;20122;-77
2021/06/27 11:20:25;;;;;;;;;;;;;;;29.77;32.44;97061.14;1706354;84;20121;-77
2021/06/27 11:22:55;;;;;;;;;;;;;;;29.87;32.83;97056.41;1706365;83;20137;-77
2021/06/27 11:25:42;;;;;;;;;;;;;;;29.96;33.50;97048.67;1706295;84;20110;-77
2021/06/27 11:28:21;;;;;;;;;;;;;;;29.69;32.15;97058.84;1705829;84;20153;-77
2021/06/27 11:30:53;;;;;;;;;;;;;;;29.56;33.18;97054.02;1706691;84;20129;-76
2021/06/27 11:33:26;;;;;;;;;;;;;;;29.52;33.67;97048.81;1699303;84;20100;-75
2021/06/27 11:35:55;;;;;;;;;;;;;;;29.57;33.66;97044.80;1670808;85;20428;-75
2021/06/27 11:38:39;;;;;;;;;;;;;;;29.57;33.48;97046.16;1655584;86;20106;-77
2021/06/27 11:41:08;;;;;;;;;;;;;;;29.72;33.95;97040.70;1655332;86;20115;-77
2021/06/27 11:44:01;;;;;;;;;;;;;;;29.85;33.91;97043.06;1655662;86;20107;-76
2021/06/27 11:46:33;;;;;;;;;;;;;;;29.84;32.84;97033.81;1654899;86;20142;-77
2021/06/27 11:49:03;;;;;;;;;;;;;;;29.69;32.85;97031.68;1638180;86;20147;-78
2021/06/27 11:51:47;;;;;;;;;;;;;;;29.72;32.02;97028.48;1641572;86;20140;-76
2021/06/27 11:54:16;;;;;;;;;;;;;;;29.44;29.59;97022.88;1601699;88;20398;-76
2021/06/27 11:57:00;;;;;;;;;;;;;;;29.41;31.51;97030.19;1688535;84;20401;-78
2021/06/27 11:59:28;;;;;;;;;;;;;;;29.46;29.70;97022.66;1686938;84;20140;-77
2021/06/27 12:02:18;;;;;;;;;;;;;;;29.49;31.28;97023.50;1701730;82;20110;-78
2021/06/27 12:04:49;;;;;;;;;;;;;;;29.66;31.49;97021.31;1713489;84;20395;-78
2021/06/27 12:07:36;;;;;;;;;;;;;;;29.82;31.44;97019.66;1711862;83;20397;-77
2021/06/27 12:10:06;;;;;;;;;;;;;;;29.85;31.51;97022.69;1713372;82;20170;-77
2021/06/27 12:12:47;;;;;;;;;;;;;;;29.96;31.80;97024.22;1700883;84;20462;-77
2021/06/27 12:15:23;;;;;;;;;;;;;;;29.86;32.14;97025.69;1686551;84;20190;-76
2021/06/27 12:18:01;;;;;;;;;;;;;;;29.97;32.04;97022.64;1717436;82;20430;-77
2021/06/27 12:20:29;;;;;;;;;;;;;;;30.09;32.28;97019.80;1737513;82;20172;-76
2021/06/27 12:22:59;;;;;;;;;;;;;;;29.97;31.45;97022.64;1725205;82;20153;-76
2021/06/27 12:25:28;;;;;;;;;;;;;;;29.66;32.16;97023.50;1721912;82;20154;-75
2021/06/27 12:27:56;;;;;;;;;;;;;;;29.37;33.47;97024.95;1720297;82;20414;-76
2021/06/27 12:30:46;;;;;;;;;;;;;;;29.33;33.49;97028.40;1728043;82;20148;-75
2021/06/27 12:33:22;;;;;;;;;;;;;;;29.37;32.80;97014.09;1727936;82;20199;-75
2021/06/27 12:35:57;;;;;;;;;;;;;;;29.44;32.89;97022.08;1727853;82;20135;-76
2021/06/27 12:38:23;;;;;;;;;;;;;;;29.28;32.14;97020.41;1716279;82;20415;-74
2021/06/27 12:40:55;;;;;;;;;;;;;;;29.21;32.58;97021.11;1715769;83;20105;-76
2021/06/27 12:43:30;;;;;;;;;;;;;;;29.09;33.23;97020.37;1715863;83;20099;-77
2021/06/27 12:46:17;;;;;;;;;;;;;;;29.06;33.43;97021.67;1716166;84;20089;-77
2021/06/27 12:48:46;;;;;;;;;;;;;;;29.13;33.71;97029.14;1689905;84;20113;-73
2021/06/27 12:51:34;;;;;;;;;;;;;;;29.28;33.05;97020.96;1714973;83;20152;-73
2021/06/27 12:54:12;;;;;;;;;;;;;;;29.36;32.65;97019.23;1745040;82;20440;-78
2021/06/27 12:56:54;;;;;;;;;;;;;;;29.45;32.91;97012.87;1712794;82;20126;-77